sensor_id;sensor_type;location;lat;lon;timestamp;P1;durP1;ratioP1;P2;durP2;ratioP2
10387;SDS011;5240;51.128;4.566;2022-07-29T00:02:02;5.35;;;2.45;;
10387;SDS011;5240;51.128;4.566;2022-07-29T00:04:29;4.65;;;2.20;;
10387;SDS011;5240;51.128;4.566;2022-07-29T00:06:56;4.10;;;2.30;;
10387;SDS011;5240;51.128;4.566;2022-07-29T00:09:25;2.75;;;1.98;;
10387;SDS011;5240;51.128;4.566;2022-07-29T00:11:52;8.05;;;2.45;;
10387;SDS011;5240;51.128;4.566;2022-07-29T00:14:20;6.00;;;2.35;;
10387;SDS011;5240;51.128;4.566;2022-07-29T00:16:47;5.95;;;2.28;;
10387;SDS011;5240;51.128;4.566;2022-07-29T00:19:14;5.85;;;2.53;;
10387;SDS011;5240;51.128;4.566;2022-07-29T00:21:42;6.53;;;2.60;;
10387;SDS011;5240;51.128;4.566;2022-07-29T00:24:09;6.50;;;2.35;;
10387;SDS011;5240;51.128;4.566;2022-07-29T00:26:38;4.20;;;2.42;;
10387;SDS011;5240;51.128;4.566;2022-07-29T00:29:05;4.75;;;2.22;;
10387;SDS011;5240;51.128;4.566;2022-07-29T00:31:32;4.13;;;2.50;;
10387;SDS011;5240;51.128;4.566;2022-07-29T00:33:59;2.60;;;2.00;;
10387;SDS011;5240;51.128;4.566;2022-07-29T00:36:27;4.57;;;2.35;;
10387;SDS011;5240;51.128;4.566;2022-07-29T00:38:53;4.40;;;2.17;;
10387;SDS011;5240;51.128;4.566;2022-07-29T00:41:21;5.68;;;2.45;;
10387;SDS011;5240;51.128;4.566;2022-07-29T00:43:49;5.45;;;2.10;;
10387;SDS011;5240;51.128;4.566;2022-07-29T00:46:16;5.70;;;2.30;;
10387;SDS011;5240;51.128;4.566;2022-07-29T00:48:44;5.70;;;2.25;;
10387;SDS011;5240;51.128;4.566;2022-07-29T00:51:11;8.25;;;2.15;;
10387;SDS011;5240;51.128;4.566;2022-07-29T00:53:39;6.13;;;2.28;;
10387;SDS011;5240;51.128;4.566;2022-07-29T00:56:06;5.38;;;2.50;;
10387;SDS011;5240;51.128;4.566;2022-07-29T00:58:33;6.25;;;2.22;;
10387;SDS011;5240;51.128;4.566;2022-07-29T01:01:02;6.97;;;2.20;;
10387;SDS011;5240;51.128;4.566;2022-07-29T01:03:29;2.30;;;1.80;;
10387;SDS011;5240;51.128;4.566;2022-07-29T01:05:56;4.03;;;2.20;;
10387;SDS011;5240;51.128;4.566;2022-07-29T01:08:24;4.38;;;2.22;;
10387;SDS011;5240;51.128;4.566;2022-07-29T01:10:51;5.25;;;2.22;;
10387;SDS011;5240;51.128;4.566;2022-07-29T01:13:19;4.32;;;2.00;;
10387;SDS011;5240;51.128;4.566;2022-07-29T01:15:48;5.38;;;2.28;;
10387;SDS011;5240;51.128;4.566;2022-07-29T01:18:18;5.00;;;2.00;;
10387;SDS011;5240;51.128;4.566;2022-07-29T01:20:53;5.38;;;2.20;;
10387;SDS011;5240;51.128;4.566;2022-07-29T01:23:28;5.63;;;2.03;;
10387;SDS011;5240;51.128;4.566;2022-07-29T01:26:04;3.25;;;2.10;;
10387;SDS011;5240;51.128;4.566;2022-07-29T01:28:44;6.40;;;2.00;;
10387;SDS011;5240;51.128;4.566;2022-07-29T01:31:14;4.97;;;1.92;;
10387;SDS011;5240;51.128;4.566;2022-07-29T01:33:43;4.38;;;2.05;;
10387;SDS011;5240;51.128;4.566;2022-07-29T01:36:16;2.83;;;2.10;;
10387;SDS011;5240;51.128;4.566;2022-07-29T01:38:46;4.90;;;2.28;;
10387;SDS011;5240;51.128;4.566;2022-07-29T01:41:16;3.53;;;2.63;;
10387;SDS011;5240;51.128;4.566;2022-07-29T01:43:47;6.45;;;2.15;;
10387;SDS011;5240;51.128;4.566;2022-07-29T01:46:17;4.13;;;2.55;;
10387;SDS011;5240;51.128;4.566;2022-07-29T01:48:47;4.28;;;2.17;;
10387;SDS011;5240;51.128;4.566;2022-07-29T01:51:16;3.78;;;2.20;;
10387;SDS011;5240;51.128;4.566;2022-07-29T01:53:46;2.42;;;2.03;;
10387;SDS011;5240;51.128;4.566;2022-07-29T01:56:14;6.50;;;2.30;;
10387;SDS011;5240;51.128;4.566;2022-07-29T01:58:45;5.05;;;2.20;;
10387;SDS011;5240;51.128;4.566;2022-07-29T02:01:14;5.45;;;2.03;;
10387;SDS011;5240;51.128;4.566;2022-07-29T02:03:42;5.97;;;2.70;;
10387;SDS011;5240;51.128;4.566;2022-07-29T02:06:10;3.58;;;2.17;;
10387;SDS011;5240;51.128;4.566;2022-07-29T02:08:38;5.53;;;2.30;;
10387;SDS011;5240;51.128;4.566;2022-07-29T02:11:06;5.82;;;2.53;;
10387;SDS011;5240;51.128;4.566;2022-07-29T02:13:34;3.45;;;2.08;;
10387;SDS011;5240;51.128;4.566;2022-07-29T02:16:04;5.05;;;2.30;;
10387;SDS011;5240;51.128;4.566;2022-07-29T02:18:32;6.40;;;2.60;;
10387;SDS011;5240;51.128;4.566;2022-07-29T02:21:00;4.88;;;2.30;;
10387;SDS011;5240;51.128;4.566;2022-07-29T02:23:28;4.35;;;2.20;;
10387;SDS011;5240;51.128;4.566;2022-07-29T02:25:57;4.32;;;2.42;;
10387;SDS011;5240;51.128;4.566;2022-07-29T02:28:26;5.22;;;2.63;;
10387;SDS011;5240;51.128;4.566;2022-07-29T02:30:54;5.78;;;2.78;;
10387;SDS011;5240;51.128;4.566;2022-07-29T02:33:23;6.13;;;2.92;;
10387;SDS011;5240;51.128;4.566;2022-07-29T02:35:51;6.95;;;2.83;;
10387;SDS011;5240;51.128;4.566;2022-07-29T02:38:19;5.65;;;2.90;;
10387;SDS011;5240;51.128;4.566;2022-07-29T02:41:05;3.45;;;2.80;;
10387;SDS011;5240;51.128;4.566;2022-07-29T02:43:36;5.05;;;2.80;;
10387;SDS011;5240;51.128;4.566;2022-07-29T02:46:04;6.28;;;2.78;;
10387;SDS011;5240;51.128;4.566;2022-07-29T02:48:34;6.85;;;2.90;;
10387;SDS011;5240;51.128;4.566;2022-07-29T02:51:05;4.93;;;2.88;;
10387;SDS011;5240;51.128;4.566;2022-07-29T02:53:33;8.50;;;2.80;;
10387;SDS011;5240;51.128;4.566;2022-07-29T02:56:04;5.30;;;2.47;;
10387;SDS011;5240;51.128;4.566;2022-07-29T02:58:34;4.00;;;2.92;;
10387;SDS011;5240;51.128;4.566;2022-07-29T03:01:07;4.78;;;2.88;;
10387;SDS011;5240;51.128;4.566;2022-07-29T03:03:37;5.10;;;2.90;;
10387;SDS011;5240;51.128;4.566;2022-07-29T03:06:05;3.78;;;2.90;;
10387;SDS011;5240;51.128;4.566;2022-07-29T03:08:34;4.38;;;2.80;;
10387;SDS011;5240;51.128;4.566;2022-07-29T03:11:01;3.08;;;2.70;;
10387;SDS011;5240;51.128;4.566;2022-07-29T03:13:29;5.00;;;2.88;;
10387;SDS011;5240;51.128;4.566;2022-07-29T03:15:57;3.35;;;2.70;;
10387;SDS011;5240;51.128;4.566;2022-07-29T03:18:24;7.63;;;2.80;;
10387;SDS011;5240;51.128;4.566;2022-07-29T03:20:53;5.90;;;3.10;;
10387;SDS011;5240;51.128;4.566;2022-07-29T03:23:21;3.20;;;2.60;;
10387;SDS011;5240;51.128;4.566;2022-07-29T03:25:49;6.15;;;2.92;;
10387;SDS011;5240;51.128;4.566;2022-07-29T03:28:16;4.55;;;2.90;;
10387;SDS011;5240;51.128;4.566;2022-07-29T03:30:44;5.47;;;2.97;;
10387;SDS011;5240;51.128;4.566;2022-07-29T03:33:11;3.55;;;2.70;;
10387;SDS011;5240;51.128;4.566;2022-07-29T03:35:39;7.35;;;3.00;;
10387;SDS011;5240;51.128;4.566;2022-07-29T03:38:07;4.72;;;2.78;;
10387;SDS011;5240;51.128;4.566;2022-07-29T03:40:35;5.57;;;2.95;;
10387;SDS011;5240;51.128;4.566;2022-07-29T03:43:04;8.75;;;2.75;;
10387;SDS011;5240;51.128;4.566;2022-07-29T03:45:32;5.00;;;2.80;;
10387;SDS011;5240;51.128;4.566;2022-07-29T03:48:01;4.40;;;2.78;;
10387;SDS011;5240;51.128;4.566;2022-07-29T03:50:29;4.07;;;2.42;;
10387;SDS011;5240;51.128;4.566;2022-07-29T03:52:57;4.15;;;2.63;;
10387;SDS011;5240;51.128;4.566;2022-07-29T03:55:26;4.25;;;2.70;;
10387;SDS011;5240;51.128;4.566;2022-07-29T03:57:55;7.68;;;2.60;;
10387;SDS011;5240;51.128;4.566;2022-07-29T04:00:23;4.00;;;2.50;;
10387;SDS011;5240;51.128;4.566;2022-07-29T04:02:51;5.20;;;2.58;;
10387;SDS011;5240;51.128;4.566;2022-07-29T04:05:18;6.18;;;2.70;;
10387;SDS011;5240;51.128;4.566;2022-07-29T04:07:46;5.97;;;2.95;;
10387;SDS011;5240;51.128;4.566;2022-07-29T04:10:14;3.15;;;2.83;;
10387;SDS011;5240;51.128;4.566;2022-07-29T04:12:43;5.07;;;2.78;;
10387;SDS011;5240;51.128;4.566;2022-07-29T04:15:10;5.97;;;2.75;;
10387;SDS011;5240;51.128;4.566;2022-07-29T04:17:38;8.27;;;3.25;;
10387;SDS011;5240;51.128;4.566;2022-07-29T04:20:05;4.95;;;2.78;;
10387;SDS011;5240;51.128;4.566;2022-07-29T04:22:33;6.72;;;3.15;;
10387;SDS011;5240;51.128;4.566;2022-07-29T04:25:00;3.38;;;2.70;;
10387;SDS011;5240;51.128;4.566;2022-07-29T04:27:27;5.95;;;2.95;;
10387;SDS011;5240;51.128;4.566;2022-07-29T04:29:56;9.15;;;3.30;;
10387;SDS011;5240;51.128;4.566;2022-07-29T04:32:24;4.88;;;2.65;;
10387;SDS011;5240;51.128;4.566;2022-07-29T04:34:51;6.22;;;3.00;;
10387;SDS011;5240;51.128;4.566;2022-07-29T04:37:18;6.10;;;3.33;;
10387;SDS011;5240;51.128;4.566;2022-07-29T04:39:46;3.67;;;2.78;;
10387;SDS011;5240;51.128;4.566;2022-07-29T04:42:13;5.38;;;3.05;;
10387;SDS011;5240;51.128;4.566;2022-07-29T04:44:40;4.60;;;3.00;;
10387;SDS011;5240;51.128;4.566;2022-07-29T04:47:09;6.53;;;3.17;;
10387;SDS011;5240;51.128;4.566;2022-07-29T04:49:37;3.25;;;2.90;;
10387;SDS011;5240;51.128;4.566;2022-07-29T04:52:04;4.82;;;3.03;;
10387;SDS011;5240;51.128;4.566;2022-07-29T04:54:32;3.40;;;2.72;;
10387;SDS011;5240;51.128;4.566;2022-07-29T04:56:59;7.13;;;3.13;;
10387;SDS011;5240;51.128;4.566;2022-07-29T04:59:28;5.10;;;3.00;;
10387;SDS011;5240;51.128;4.566;2022-07-29T05:01:56;4.18;;;3.10;;
10387;SDS011;5240;51.128;4.566;2022-07-29T05:04:24;5.32;;;2.80;;
10387;SDS011;5240;51.128;4.566;2022-07-29T05:06:51;5.68;;;2.88;;
10387;SDS011;5240;51.128;4.566;2022-07-29T05:09:19;4.43;;;3.08;;
10387;SDS011;5240;51.128;4.566;2022-07-29T05:11:46;5.32;;;2.95;;
10387;SDS011;5240;51.128;4.566;2022-07-29T05:14:13;4.25;;;3.08;;
10387;SDS011;5240;51.128;4.566;2022-07-29T05:16:42;4.60;;;3.25;;
10387;SDS011;5240;51.128;4.566;2022-07-29T05:19:10;8.00;;;2.88;;
10387;SDS011;5240;51.128;4.566;2022-07-29T05:21:38;8.70;;;3.33;;
10387;SDS011;5240;51.128;4.566;2022-07-29T05:24:05;4.65;;;3.42;;
10387;SDS011;5240;51.128;4.566;2022-07-29T05:26:33;6.22;;;3.42;;
10387;SDS011;5240;51.128;4.566;2022-07-29T05:29:02;6.00;;;3.10;;
10387;SDS011;5240;51.128;4.566;2022-07-29T05:31:29;5.93;;;3.50;;
10387;SDS011;5240;51.128;4.566;2022-07-29T05:33:56;6.78;;;3.67;;
10387;SDS011;5240;51.128;4.566;2022-07-29T05:36:26;5.97;;;3.67;;
10387;SDS011;5240;51.128;4.566;2022-07-29T05:38:57;6.85;;;3.30;;
10387;SDS011;5240;51.128;4.566;2022-07-29T05:41:24;6.10;;;3.42;;
10387;SDS011;5240;51.128;4.566;2022-07-29T05:43:51;4.03;;;3.58;;
10387;SDS011;5240;51.128;4.566;2022-07-29T05:46:19;6.78;;;3.55;;
10387;SDS011;5240;51.128;4.566;2022-07-29T05:48:46;5.45;;;3.17;;
10387;SDS011;5240;51.128;4.566;2022-07-29T05:51:15;5.60;;;3.45;;
10387;SDS011;5240;51.128;4.566;2022-07-29T05:53:42;4.18;;;3.20;;
10387;SDS011;5240;51.128;4.566;2022-07-29T05:56:11;3.78;;;3.35;;
10387;SDS011;5240;51.128;4.566;2022-07-29T05:58:38;7.35;;;3.42;;
10387;SDS011;5240;51.128;4.566;2022-07-29T06:01:05;3.85;;;3.17;;
10387;SDS011;5240;51.128;4.566;2022-07-29T06:03:33;3.55;;;3.10;;
10387;SDS011;5240;51.128;4.566;2022-07-29T06:06:02;4.63;;;3.45;;
10387;SDS011;5240;51.128;4.566;2022-07-29T06:08:34;8.70;;;3.50;;
10387;SDS011;5240;51.128;4.566;2022-07-29T06:11:01;5.03;;;3.70;;
10387;SDS011;5240;51.128;4.566;2022-07-29T06:13:33;5.88;;;3.38;;
10387;SDS011;5240;51.128;4.566;2022-07-29T06:16:00;7.25;;;3.65;;
10387;SDS011;5240;51.128;4.566;2022-07-29T06:18:27;5.38;;;3.65;;
10387;SDS011;5240;51.128;4.566;2022-07-29T06:20:55;4.60;;;3.53;;
10387;SDS011;5240;51.128;4.566;2022-07-29T06:23:22;6.18;;;3.53;;
10387;SDS011;5240;51.128;4.566;2022-07-29T06:25:49;5.50;;;3.20;;
10387;SDS011;5240;51.128;4.566;2022-07-29T06:28:18;4.95;;;3.40;;
10387;SDS011;5240;51.128;4.566;2022-07-29T06:30:47;5.82;;;3.45;;
10387;SDS011;5240;51.128;4.566;2022-07-29T06:33:17;7.57;;;3.40;;
10387;SDS011;5240;51.128;4.566;2022-07-29T06:35:45;5.57;;;3.28;;
10387;SDS011;5240;51.128;4.566;2022-07-29T06:38:12;5.05;;;2.92;;
10387;SDS011;5240;51.128;4.566;2022-07-29T06:40:40;4.18;;;3.17;;
10387;SDS011;5240;51.128;4.566;2022-07-29T06:43:27;6.97;;;3.70;;
10387;SDS011;5240;51.128;4.566;2022-07-29T06:45:58;5.35;;;3.40;;
10387;SDS011;5240;51.128;4.566;2022-07-29T06:48:26;4.25;;;3.40;;
10387;SDS011;5240;51.128;4.566;2022-07-29T06:50:57;4.20;;;3.22;;
10387;SDS011;5240;51.128;4.566;2022-07-29T06:53:24;5.75;;;3.42;;
10387;SDS011;5240;51.128;4.566;2022-07-29T06:55:52;5.70;;;3.58;;
10387;SDS011;5240;51.128;4.566;2022-07-29T06:58:19;5.75;;;3.67;;
10387;SDS011;5240;51.128;4.566;2022-07-29T07:00:46;6.63;;;3.30;;
10387;SDS011;5240;51.128;4.566;2022-07-29T07:03:16;8.93;;;3.80;;
10387;SDS011;5240;51.128;4.566;2022-07-29T07:05:48;5.07;;;3.70;;
10387;SDS011;5240;51.128;4.566;2022-07-29T07:08:15;5.63;;;3.58;;
10387;SDS011;5240;51.128;4.566;2022-07-29T07:10:44;6.25;;;3.50;;
10387;SDS011;5240;51.128;4.566;2022-07-29T07:13:11;8.93;;;3.60;;
10387;SDS011;5240;51.128;4.566;2022-07-29T07:15:39;4.55;;;3.40;;
10387;SDS011;5240;51.128;4.566;2022-07-29T07:18:06;5.03;;;3.42;;
10387;SDS011;5240;51.128;4.566;2022-07-29T07:20:35;6.95;;;3.80;;
10387;SDS011;5240;51.128;4.566;2022-07-29T07:23:03;6.47;;;3.78;;
10387;SDS011;5240;51.128;4.566;2022-07-29T07:25:30;7.35;;;3.78;;
10387;SDS011;5240;51.128;4.566;2022-07-29T07:27:58;6.45;;;3.90;;
10387;SDS011;5240;51.128;4.566;2022-07-29T07:30:25;7.43;;;3.65;;
10387;SDS011;5240;51.128;4.566;2022-07-29T07:32:53;8.52;;;3.60;;
10387;SDS011;5240;51.128;4.566;2022-07-29T07:35:20;4.75;;;3.70;;
10387;SDS011;5240;51.128;4.566;2022-07-29T07:37:49;5.82;;;3.83;;
10387;SDS011;5240;51.128;4.566;2022-07-29T07:40:16;9.90;;;4.03;;
10387;SDS011;5240;51.128;4.566;2022-07-29T07:42:43;7.00;;;3.50;;
10387;SDS011;5240;51.128;4.566;2022-07-29T07:45:10;6.43;;;3.72;;
10387;SDS011;5240;51.128;4.566;2022-07-29T07:47:38;6.70;;;3.53;;
10387;SDS011;5240;51.128;4.566;2022-07-29T07:50:06;7.50;;;3.40;;
10387;SDS011;5240;51.128;4.566;2022-07-29T07:52:33;5.57;;;3.75;;
10387;SDS011;5240;51.128;4.566;2022-07-29T07:55:02;7.13;;;4.05;;
10387;SDS011;5240;51.128;4.566;2022-07-29T07:57:29;6.05;;;4.07;;
10387;SDS011;5240;51.128;4.566;2022-07-29T07:59:56;4.75;;;3.70;;
10387;SDS011;5240;51.128;4.566;2022-07-29T08:02:23;6.43;;;3.80;;
10387;SDS011;5240;51.128;4.566;2022-07-29T08:04:51;4.78;;;3.60;;
10387;SDS011;5240;51.128;4.566;2022-07-29T08:07:18;7.40;;;4.05;;
10387;SDS011;5240;51.128;4.566;2022-07-29T08:09:45;6.65;;;3.65;;
10387;SDS011;5240;51.128;4.566;2022-07-29T08:12:14;5.90;;;3.72;;
10387;SDS011;5240;51.128;4.566;2022-07-29T08:14:41;6.95;;;3.50;;
10387;SDS011;5240;51.128;4.566;2022-07-29T08:17:08;6.75;;;4.00;;
10387;SDS011;5240;51.128;4.566;2022-07-29T08:19:36;6.82;;;3.70;;
10387;SDS011;5240;51.128;4.566;2022-07-29T08:22:03;3.90;;;3.50;;
10387;SDS011;5240;51.128;4.566;2022-07-29T08:24:30;4.88;;;3.38;;
10387;SDS011;5240;51.128;4.566;2022-07-29T08:27:18;6.45;;;3.72;;
10387;SDS011;5240;51.128;4.566;2022-07-29T08:29:46;6.53;;;3.28;;
10387;SDS011;5240;51.128;4.566;2022-07-29T08:32:13;6.20;;;3.63;;
10387;SDS011;5240;51.128;4.566;2022-07-29T08:34:41;6.80;;;3.47;;
10387;SDS011;5240;51.128;4.566;2022-07-29T08:37:11;6.60;;;3.38;;
10387;SDS011;5240;51.128;4.566;2022-07-29T08:39:38;4.65;;;3.50;;
10387;SDS011;5240;51.128;4.566;2022-07-29T08:42:06;7.07;;;3.47;;
10387;SDS011;5240;51.128;4.566;2022-07-29T08:44:36;4.90;;;2.75;;
10387;SDS011;5240;51.128;4.566;2022-07-29T08:47:03;4.18;;;3.22;;
10387;SDS011;5240;51.128;4.566;2022-07-29T08:49:32;7.03;;;3.50;;
10387;SDS011;5240;51.128;4.566;2022-07-29T08:51:59;4.72;;;3.33;;
10387;SDS011;5240;51.128;4.566;2022-07-29T08:54:27;5.75;;;3.00;;
10387;SDS011;5240;51.128;4.566;2022-07-29T08:56:54;5.45;;;3.25;;
10387;SDS011;5240;51.128;4.566;2022-07-29T08:59:22;6.05;;;3.00;;
10387;SDS011;5240;51.128;4.566;2022-07-29T09:01:51;4.40;;;3.00;;
10387;SDS011;5240;51.128;4.566;2022-07-29T09:04:19;4.30;;;3.10;;
10387;SDS011;5240;51.128;4.566;2022-07-29T09:06:47;4.30;;;2.70;;
10387;SDS011;5240;51.128;4.566;2022-07-29T09:09:16;5.47;;;3.33;;
10387;SDS011;5240;51.128;4.566;2022-07-29T09:11:43;4.80;;;2.90;;
10387;SDS011;5240;51.128;4.566;2022-07-29T09:14:12;5.03;;;2.80;;
10387;SDS011;5240;51.128;4.566;2022-07-29T09:16:46;3.08;;;2.67;;
10387;SDS011;5240;51.128;4.566;2022-07-29T09:19:22;4.70;;;2.65;;
10387;SDS011;5240;51.128;4.566;2022-07-29T09:21:50;4.90;;;3.00;;
10387;SDS011;5240;51.128;4.566;2022-07-29T09:24:24;3.05;;;2.40;;
10387;SDS011;5240;51.128;4.566;2022-07-29T09:26:51;3.65;;;2.60;;
10387;SDS011;5240;51.128;4.566;2022-07-29T09:29:19;8.35;;;2.70;;
10387;SDS011;5240;51.128;4.566;2022-07-29T09:31:47;4.60;;;2.70;;
10387;SDS011;5240;51.128;4.566;2022-07-29T09:34:15;4.25;;;2.50;;
10387;SDS011;5240;51.128;4.566;2022-07-29T09:36:45;4.88;;;2.45;;
10387;SDS011;5240;51.128;4.566;2022-07-29T09:39:12;4.28;;;2.60;;
10387;SDS011;5240;51.128;4.566;2022-07-29T09:41:44;5.03;;;2.53;;
10387;SDS011;5240;51.128;4.566;2022-07-29T09:44:11;5.85;;;2.25;;
10387;SDS011;5240;51.128;4.566;2022-07-29T09:46:40;3.83;;;2.55;;
10387;SDS011;5240;51.128;4.566;2022-07-29T09:49:08;3.45;;;2.50;;
10387;SDS011;5240;51.128;4.566;2022-07-29T09:51:36;2.83;;;2.22;;
10387;SDS011;5240;51.128;4.566;2022-07-29T09:54:10;4.55;;;2.83;;
10387;SDS011;5240;51.128;4.566;2022-07-29T09:56:48;4.00;;;2.42;;
10387;SDS011;5240;51.128;4.566;2022-07-29T09:59:15;4.18;;;2.55;;
10387;SDS011;5240;51.128;4.566;2022-07-29T10:01:43;6.10;;;2.90;;
10387;SDS011;5240;51.128;4.566;2022-07-29T10:04:10;5.22;;;2.35;;
10387;SDS011;5240;51.128;4.566;2022-07-29T10:06:45;5.18;;;2.60;;
10387;SDS011;5240;51.128;4.566;2022-07-29T10:09:23;5.72;;;2.50;;
10387;SDS011;5240;51.128;4.566;2022-07-29T10:12:07;4.85;;;2.45;;
10387;SDS011;5240;51.128;4.566;2022-07-29T10:14:35;4.65;;;2.30;;
10387;SDS011;5240;51.128;4.566;2022-07-29T10:17:05;3.58;;;2.20;;
10387;SDS011;5240;51.128;4.566;2022-07-29T10:19:33;4.03;;;2.60;;
10387;SDS011;5240;51.128;4.566;2022-07-29T10:22:01;5.75;;;2.42;;
10387;SDS011;5240;51.128;4.566;2022-07-29T10:24:31;4.20;;;2.17;;
10387;SDS011;5240;51.128;4.566;2022-07-29T10:26:59;5.95;;;2.50;;
10387;SDS011;5240;51.128;4.566;2022-07-29T10:29:27;10.90;;;2.80;;
10387;SDS011;5240;51.128;4.566;2022-07-29T10:32:00;3.55;;;2.33;;
10387;SDS011;5240;51.128;4.566;2022-07-29T10:34:31;3.15;;;2.17;;
10387;SDS011;5240;51.128;4.566;2022-07-29T10:37:02;4.82;;;2.45;;
10387;SDS011;5240;51.128;4.566;2022-07-29T10:39:36;5.80;;;2.28;;
10387;SDS011;5240;51.128;4.566;2022-07-29T10:42:11;4.30;;;2.60;;
10387;SDS011;5240;51.128;4.566;2022-07-29T10:44:42;5.00;;;2.50;;
10387;SDS011;5240;51.128;4.566;2022-07-29T10:47:19;3.95;;;2.40;;
10387;SDS011;5240;51.128;4.566;2022-07-29T10:49:54;6.30;;;3.20;;
10387;SDS011;5240;51.128;4.566;2022-07-29T10:52:22;6.03;;;2.65;;
10387;SDS011;5240;51.128;4.566;2022-07-29T10:54:54;5.22;;;2.25;;
10387;SDS011;5240;51.128;4.566;2022-07-29T10:57:24;5.95;;;2.60;;
10387;SDS011;5240;51.128;4.566;2022-07-29T11:02:44;6.20;;;2.53;;
10387;SDS011;5240;51.128;4.566;2022-07-29T11:05:17;4.10;;;2.45;;
10387;SDS011;5240;51.128;4.566;2022-07-29T11:10:32;7.78;;;2.53;;
10387;SDS011;5240;51.128;4.566;2022-07-29T11:12:59;6.40;;;2.40;;
10387;SDS011;5240;51.128;4.566;2022-07-29T11:15:26;4.90;;;2.38;;
10387;SDS011;5240;51.128;4.566;2022-07-29T11:18:05;4.10;;;2.40;;
10387;SDS011;5240;51.128;4.566;2022-07-29T11:20:33;5.15;;;2.15;;
10387;SDS011;5240;51.128;4.566;2022-07-29T11:23:00;4.05;;;2.05;;
10387;SDS011;5240;51.128;4.566;2022-07-29T11:25:28;4.40;;;1.95;;
10387;SDS011;5240;51.128;4.566;2022-07-29T11:28:08;3.65;;;2.00;;
10387;SDS011;5240;51.128;4.566;2022-07-29T11:30:46;5.75;;;2.60;;
10387;SDS011;5240;51.128;4.566;2022-07-29T11:33:26;2.95;;;1.83;;
10387;SDS011;5240;51.128;4.566;2022-07-29T11:36:09;2.70;;;2.10;;
10387;SDS011;5240;51.128;4.566;2022-07-29T11:38:37;5.78;;;2.30;;
10387;SDS011;5240;51.128;4.566;2022-07-29T11:43:56;7.30;;;2.65;;
10387;SDS011;5240;51.128;4.566;2022-07-29T11:46:43;5.18;;;2.10;;
10387;SDS011;5240;51.128;4.566;2022-07-29T11:49:11;5.95;;;2.50;;
10387;SDS011;5240;51.128;4.566;2022-07-29T11:51:38;5.82;;;2.65;;
10387;SDS011;5240;51.128;4.566;2022-07-29T11:54:07;6.60;;;2.30;;
10387;SDS011;5240;51.128;4.566;2022-07-29T11:56:37;5.60;;;2.78;;
10387;SDS011;5240;51.128;4.566;2022-07-29T11:59:07;6.07;;;2.20;;
10387;SDS011;5240;51.128;4.566;2022-07-29T12:01:35;5.10;;;2.17;;
10387;SDS011;5240;51.128;4.566;2022-07-29T12:04:02;5.95;;;2.65;;
10387;SDS011;5240;51.128;4.566;2022-07-29T12:06:30;5.00;;;2.30;;
10387;SDS011;5240;51.128;4.566;2022-07-29T12:08:57;7.28;;;2.60;;
10387;SDS011;5240;51.128;4.566;2022-07-29T12:11:25;3.75;;;2.30;;
10387;SDS011;5240;51.128;4.566;2022-07-29T12:13:53;5.85;;;2.60;;
10387;SDS011;5240;51.128;4.566;2022-07-29T12:16:22;4.95;;;2.50;;
10387;SDS011;5240;51.128;4.566;2022-07-29T12:18:56;3.88;;;2.33;;
10387;SDS011;5240;51.128;4.566;2022-07-29T12:21:25;6.50;;;2.58;;
10387;SDS011;5240;51.128;4.566;2022-07-29T12:23:53;4.35;;;2.60;;
10387;SDS011;5240;51.128;4.566;2022-07-29T12:26:20;8.35;;;2.90;;
10387;SDS011;5240;51.128;4.566;2022-07-29T12:28:48;4.13;;;2.70;;
10387;SDS011;5240;51.128;4.566;2022-07-29T12:31:15;5.57;;;2.60;;
10387;SDS011;5240;51.128;4.566;2022-07-29T12:33:44;5.50;;;2.80;;
10387;SDS011;5240;51.128;4.566;2022-07-29T12:36:18;3.70;;;2.20;;
10387;SDS011;5240;51.128;4.566;2022-07-29T12:38:46;10.82;;;2.92;;
10387;SDS011;5240;51.128;4.566;2022-07-29T12:41:13;5.55;;;2.85;;
10387;SDS011;5240;51.128;4.566;2022-07-29T12:43:51;4.40;;;2.67;;
10387;SDS011;5240;51.128;4.566;2022-07-29T12:46:19;5.35;;;2.50;;
10387;SDS011;5240;51.128;4.566;2022-07-29T12:48:49;5.45;;;2.92;;
10387;SDS011;5240;51.128;4.566;2022-07-29T12:51:25;3.50;;;2.42;;
10387;SDS011;5240;51.128;4.566;2022-07-29T12:54:03;6.25;;;2.88;;
10387;SDS011;5240;51.128;4.566;2022-07-29T12:56:30;5.32;;;2.53;;
10387;SDS011;5240;51.128;4.566;2022-07-29T12:58:58;7.05;;;2.88;;
10387;SDS011;5240;51.128;4.566;2022-07-29T13:01:25;3.88;;;2.60;;
10387;SDS011;5240;51.128;4.566;2022-07-29T13:03:54;5.60;;;2.72;;
10387;SDS011;5240;51.128;4.566;2022-07-29T13:06:33;7.50;;;3.05;;
10387;SDS011;5240;51.128;4.566;2022-07-29T13:09:01;5.25;;;3.10;;
10387;SDS011;5240;51.128;4.566;2022-07-29T13:11:30;2.53;;;2.30;;
10387;SDS011;5240;51.128;4.566;2022-07-29T13:13:57;4.25;;;2.90;;
10387;SDS011;5240;51.128;4.566;2022-07-29T13:16:24;4.75;;;2.90;;
10387;SDS011;5240;51.128;4.566;2022-07-29T13:19:04;4.75;;;2.70;;
10387;SDS011;5240;51.128;4.566;2022-07-29T13:21:32;6.13;;;2.80;;
10387;SDS011;5240;51.128;4.566;2022-07-29T13:23:59;7.93;;;3.15;;
10387;SDS011;5240;51.128;4.566;2022-07-29T13:26:26;7.00;;;3.40;;
10387;SDS011;5240;51.128;4.566;2022-07-29T13:28:54;6.88;;;3.30;;
10387;SDS011;5240;51.128;4.566;2022-07-29T13:31:21;5.68;;;3.42;;
10387;SDS011;5240;51.128;4.566;2022-07-29T13:33:48;6.93;;;3.30;;
10387;SDS011;5240;51.128;4.566;2022-07-29T13:36:17;6.53;;;2.90;;
10387;SDS011;5240;51.128;4.566;2022-07-29T13:38:44;5.93;;;3.08;;
10387;SDS011;5240;51.128;4.566;2022-07-29T13:41:11;4.00;;;2.83;;
10387;SDS011;5240;51.128;4.566;2022-07-29T13:43:39;7.03;;;2.90;;
10387;SDS011;5240;51.128;4.566;2022-07-29T13:46:06;5.18;;;2.95;;
10387;SDS011;5240;51.128;4.566;2022-07-29T13:48:33;6.22;;;2.67;;
10387;SDS011;5240;51.128;4.566;2022-07-29T13:51:00;4.90;;;2.90;;
10387;SDS011;5240;51.128;4.566;2022-07-29T13:53:29;4.50;;;2.60;;
10387;SDS011;5240;51.128;4.566;2022-07-29T13:55:57;6.90;;;3.08;;
10387;SDS011;5240;51.128;4.566;2022-07-29T13:58:25;8.52;;;3.42;;
10387;SDS011;5240;51.128;4.566;2022-07-29T14:00:52;6.40;;;3.08;;
10387;SDS011;5240;51.128;4.566;2022-07-29T14:03:19;6.57;;;2.97;;
10387;SDS011;5240;51.128;4.566;2022-07-29T14:05:46;3.90;;;2.53;;
10387;SDS011;5240;51.128;4.566;2022-07-29T14:08:13;6.20;;;3.33;;
10387;SDS011;5240;51.128;4.566;2022-07-29T14:10:42;5.68;;;3.15;;
10387;SDS011;5240;51.128;4.566;2022-07-29T14:13:10;7.90;;;3.13;;
10387;SDS011;5240;51.128;4.566;2022-07-29T14:15:37;6.47;;;2.88;;
10387;SDS011;5240;51.128;4.566;2022-07-29T14:18:04;7.20;;;3.20;;
10387;SDS011;5240;51.128;4.566;2022-07-29T14:20:31;9.45;;;2.90;;
10387;SDS011;5240;51.128;4.566;2022-07-29T14:22:59;6.60;;;3.72;;
10387;SDS011;5240;51.128;4.566;2022-07-29T14:25:26;5.22;;;3.67;;
10387;SDS011;5240;51.128;4.566;2022-07-29T14:27:54;5.38;;;2.75;;
10387;SDS011;5240;51.128;4.566;2022-07-29T14:30:22;7.93;;;3.10;;
10387;SDS011;5240;51.128;4.566;2022-07-29T14:32:49;5.43;;;2.78;;
10387;SDS011;5240;51.128;4.566;2022-07-29T14:35:16;8.02;;;3.60;;
10387;SDS011;5240;51.128;4.566;2022-07-29T14:37:43;7.28;;;3.20;;
10387;SDS011;5240;51.128;4.566;2022-07-29T14:40:11;5.03;;;2.95;;
10387;SDS011;5240;51.128;4.566;2022-07-29T14:42:38;5.35;;;2.90;;
10387;SDS011;5240;51.128;4.566;2022-07-29T14:45:08;6.57;;;2.70;;
10387;SDS011;5240;51.128;4.566;2022-07-29T14:47:35;5.57;;;2.90;;
10387;SDS011;5240;51.128;4.566;2022-07-29T14:50:03;4.47;;;2.75;;
10387;SDS011;5240;51.128;4.566;2022-07-29T14:52:31;4.22;;;2.33;;
10387;SDS011;5240;51.128;4.566;2022-07-29T14:54:58;3.35;;;2.28;;
10387;SDS011;5240;51.128;4.566;2022-07-29T14:57:25;4.95;;;2.70;;
10387;SDS011;5240;51.128;4.566;2022-07-29T14:59:53;6.05;;;2.95;;
10387;SDS011;5240;51.128;4.566;2022-07-29T15:02:22;5.05;;;2.40;;
10387;SDS011;5240;51.128;4.566;2022-07-29T15:04:49;5.68;;;2.88;;
10387;SDS011;5240;51.128;4.566;2022-07-29T15:07:16;4.85;;;2.78;;
10387;SDS011;5240;51.128;4.566;2022-07-29T15:09:43;5.38;;;2.90;;
10387;SDS011;5240;51.128;4.566;2022-07-29T15:12:11;3.67;;;2.63;;
10387;SDS011;5240;51.128;4.566;2022-07-29T15:14:38;6.30;;;2.70;;
10387;SDS011;5240;51.128;4.566;2022-07-29T15:17:05;5.32;;;2.88;;
10387;SDS011;5240;51.128;4.566;2022-07-29T15:19:34;7.15;;;2.58;;